Time;durP1;ratioP1;P1;durP2;ratioP2;P2;SDS_P1;SDS_P2;PMS_P1;PMS_P2;Temp;Humidity;BMP_temperature;BMP_pressure;BME280_temperature;BME280_humidity;BME280_pressure;Samples;Min_cycle;Max_cycle;Signal;HPM_P1;HPM_P2
2023/06/25 01:01:26;;;;;;;29.40;17.90;;;;;;;;;;2532378;23;20340;-76
2023/06/25 01:03:03;;;;;;;30.35;18.00;;;;;;;;;;2532588;23;20017;-76
2023/06/25 01:04:27;;;;;;;25.67;16.55;;;;;;;;;;2533635;23;20142;-76
2023/06/25 01:05:55;;;;;;;27.30;16.80;;;;;;;;;;2531149;23;20006;-75
2023/06/25 01:07:18;;;;;;;28.55;17.45;;;;;;;;;;2521289;23;20487;-76
2023/06/25 01:08:39;;;;;;;30.98;18.10;;;;;;;;;;2529483;23;20014;-75
2023/06/25 01:10:00;;;;;;;27.50;17.20;;;;;;;;;;2531877;23;20388;-74
2023/06/25 01:11:22;;;;;;;30.75;18.33;;;;;;;;;;2531250;23;20010;-76
2023/06/25 01:12:43;;;;;;;31.15;17.48;;;;;;;;;;2529984;23;20014;-75
2023/06/25 01:14:04;;;;;;;28.75;17.63;;;;;;;;;;2530741;23;20399;-75
2023/06/25 01:15:25;;;;;;;31.23;17.88;;;;;;;;;;2530774;23;20021;-75
2023/06/25 01:16:46;;;;;;;27.33;16.92;;;;;;;;;;2532293;23;20101;-75
2023/06/25 01:18:07;;;;;;;29.30;16.65;;;;;;;;;;2532183;23;20086;-75
2023/06/25 01:19:31;;;;;;;25.73;16.30;;;;;;;;;;2532069;23;20363;-75
2023/06/25 01:20:52;;;;;;;29.05;17.77;;;;;;;;;;2531158;23;20474;-75
2023/06/25 01:22:14;;;;;;;32.20;18.33;;;;;;;;;;2519471;23;20011;-75
2023/06/25 01:23:36;;;;;;;28.38;17.10;;;;;;;;;;2526165;23;20382;-75
2023/06/25 01:24:57;;;;;;;26.55;15.98;;;;;;;;;;2533009;23;20347;-75
2023/06/25 01:26:18;;;;;;;32.67;18.80;;;;;;;;;;2520660;23;20364;-75
2023/06/25 01:27:39;;;;;;;31.90;18.75;;;;;;;;;;2526970;23;20418;-75
2023/06/25 01:29:00;;;;;;;34.05;19.00;;;;;;;;;;2529948;23;20391;-75
2023/06/25 01:30:25;;;;;;;26.88;17.33;;;;;;;;;;2531189;23;20010;-75
2023/06/25 01:31:46;;;;;;;29.27;18.10;;;;;;;;;;2530949;23;20006;-75
2023/06/25 01:33:07;;;;;;;29.17;17.17;;;;;;;;;;2532648;23;20018;-75
2023/06/25 01:34:28;;;;;;;28.63;18.27;;;;;;;;;;2531872;23;20467;-75
2023/06/25 01:35:48;;;;;;;30.00;17.95;;;;;;;;;;2532576;23;20010;-75
2023/06/25 01:37:11;;;;;;;27.00;17.90;;;;;;;;;;2520754;23;20014;-75
2023/06/25 01:38:32;;;;;;;28.70;18.48;;;;;;;;;;2515800;23;20365;-75
2023/06/25 01:39:54;;;;;;;32.45;18.63;;;;;;;;;;2516344;23;20022;-75
2023/06/25 01:41:15;;;;;;;24.85;17.17;;;;;;;;;;2515165;23;20018;-75
2023/06/25 01:42:36;;;;;;;25.33;17.48;;;;;;;;;;2525651;23;20455;-75
2023/06/25 01:43:57;;;;;;;32.47;17.77;;;;;;;;;;2531087;23;20065;-75
2023/06/25 01:45:18;;;;;;;26.88;17.27;;;;;;;;;;2529740;23;20010;-75
2023/06/25 01:46:39;;;;;;;25.75;16.60;;;;;;;;;;2521216;23;20058;-75
2023/06/25 01:48:00;;;;;;;27.25;17.25;;;;;;;;;;2529296;23;20018;-75
2023/06/25 01:49:21;;;;;;;23.92;15.88;;;;;;;;;;2533180;23;20335;-75
2023/06/25 01:50:42;;;;;;;26.40;17.55;;;;;;;;;;2530805;23;20006;-75
2023/06/25 01:52:03;;;;;;;27.35;17.80;;;;;;;;;;2530860;23;20025;-75
2023/06/25 01:53:24;;;;;;;30.25;18.02;;;;;;;;;;2519240;23;20015;-75
2023/06/25 01:54:46;;;;;;;27.63;16.77;;;;;;;;;;2528221;23;20347;-75
2023/06/25 01:56:06;;;;;;;26.60;16.67;;;;;;;;;;2530430;23;20017;-75
2023/06/25 01:57:27;;;;;;;28.15;18.35;;;;;;;;;;2530670;23;20028;-75
2023/06/25 01:58:52;;;;;;;24.27;16.55;;;;;;;;;;2532298;23;20029;-74
2023/06/25 02:00:13;;;;;;;28.20;18.50;;;;;;;;;;2530783;23;20355;-75
2023/06/25 02:01:34;;;;;;;26.33;17.30;;;;;;;;;;2533167;23;20041;-74
2023/06/25 02:02:55;;;;;;;27.65;17.00;;;;;;;;;;2518951;23;20018;-75
2023/06/25 02:04:16;;;;;;;26.08;15.32;;;;;;;;;;2528818;23;20017;-75
2023/06/25 02:05:37;;;;;;;26.00;17.25;;;;;;;;;;2520832;23;20021;-75
2023/06/25 02:06:58;;;;;;;26.45;16.50;;;;;;;;;;2514733;23;20019;-75
2023/06/25 02:08:19;;;;;;;28.23;17.35;;;;;;;;;;2515692;23;20018;-75
2023/06/25 02:09:39;;;;;;;23.42;16.27;;;;;;;;;;2515220;23;20014;-75
2023/06/25 02:11:00;;;;;;;25.38;17.23;;;;;;;;;;2515605;23;20010;-75
2023/06/25 02:12:21;;;;;;;28.02;17.60;;;;;;;;;;2516936;23;20037;-75
2023/06/25 02:13:42;;;;;;;29.70;17.80;;;;;;;;;;2526981;23;20005;-75
2023/06/25 02:15:03;;;;;;;32.53;19.60;;;;;;;;;;2531811;23;20014;-75
2023/06/25 02:16:24;;;;;;;24.90;16.83;;;;;;;;;;2520160;23;20007;-75
2023/06/25 02:17:45;;;;;;;27.77;17.17;;;;;;;;;;2527848;23;20010;-75
2023/06/25 02:19:06;;;;;;;23.60;16.75;;;;;;;;;;2518142;23;20114;-75
2023/06/25 02:20:27;;;;;;;27.15;16.95;;;;;;;;;;2527669;23;20439;-75
2023/06/25 02:21:48;;;;;;;27.58;16.75;;;;;;;;;;2531683;23;20102;-75
2023/06/25 02:23:09;;;;;;;27.20;17.95;;;;;;;;;;2519126;23;20014;-75
2023/06/25 02:24:29;;;;;;;24.70;17.30;;;;;;;;;;2526975;23;20057;-75
2023/06/25 02:25:51;;;;;;;26.70;16.90;;;;;;;;;;2531361;23;20457;-75
2023/06/25 02:27:12;;;;;;;23.15;16.83;;;;;;;;;;2517321;23;20117;-75
2023/06/25 02:28:32;;;;;;;32.28;17.95;;;;;;;;;;2513589;23;20011;-75
2023/06/25 02:29:53;;;;;;;28.23;18.13;;;;;;;;;;2515194;23;20006;-75
2023/06/25 02:31:14;;;;;;;28.85;16.33;;;;;;;;;;2515513;23;20372;-75
2023/06/25 02:32:35;;;;;;;27.95;16.92;;;;;;;;;;2527787;23;20328;-75
2023/06/25 02:33:56;;;;;;;24.67;16.95;;;;;;;;;;2530664;23;20017;-75
2023/06/25 02:35:17;;;;;;;27.52;17.30;;;;;;;;;;2531803;23;20388;-75
2023/06/25 02:36:38;;;;;;;30.02;18.30;;;;;;;;;;2519459;23;20015;-74
2023/06/25 02:37:59;;;;;;;24.38;16.52;;;;;;;;;;2528775;23;20438;-75
2023/06/25 02:39:20;;;;;;;26.00;16.17;;;;;;;;;;2530746;23;20069;-75
2023/06/25 02:40:41;;;;;;;30.75;18.35;;;;;;;;;;2520041;23;20069;-75
2023/06/25 02:42:01;;;;;;;28.75;17.63;;;;;;;;;;2527091;23;20447;-75
2023/06/25 02:43:22;;;;;;;26.70;17.17;;;;;;;;;;2531690;23;20014;-75
2023/06/25 02:44:43;;;;;;;28.52;16.65;;;;;;;;;;2530372;23;20010;-75
2023/06/25 02:46:04;;;;;;;25.38;16.17;;;;;;;;;;2532307;23;20352;-75
2023/06/25 02:47:25;;;;;;;27.38;17.42;;;;;;;;;;2530627;23;20014;-75
2023/06/25 02:48:46;;;;;;;27.20;16.90;;;;;;;;;;2531008;23;20014;-75
2023/06/25 02:50:07;;;;;;;26.98;15.32;;;;;;;;;;2530440;23;20006;-74
2023/06/25 02:51:28;;;;;;;27.52;15.90;;;;;;;;;;2519023;23;20011;-75
2023/06/25 02:52:49;;;;;;;28.43;17.10;;;;;;;;;;2525634;23;20010;-75
2023/06/25 02:54:10;;;;;;;25.33;16.52;;;;;;;;;;2532205;23;20857;-75
2023/06/25 02:55:31;;;;;;;24.42;15.70;;;;;;;;;;2530329;23;20032;-75
2023/06/25 02:56:52;;;;;;;24.00;16.42;;;;;;;;;;2532686;23;20006;-75
2023/06/25 02:58:13;;;;;;;24.95;15.20;;;;;;;;;;2518707;23;20021;-76
2023/06/25 02:59:34;;;;;;;23.80;15.25;;;;;;;;;;2528717;23;20497;-76
2023/06/25 03:00:55;;;;;;;24.88;16.35;;;;;;;;;;2517925;23;20026;-76
2023/06/25 03:02:16;;;;;;;24.20;16.25;;;;;;;;;;2516224;23;20018;-76
2023/06/25 03:03:37;;;;;;;28.77;17.05;;;;;;;;;;2524689;23;20013;-77
2023/06/25 03:04:58;;;;;;;20.75;14.63;;;;;;;;;;2531757;23;20097;-76
2023/06/25 03:06:19;;;;;;;23.17;15.98;;;;;;;;;;2519777;23;20010;-76
2023/06/25 03:07:49;;;;;;;28.75;16.90;;;;;;;;;;2527259;23;20010;-77
2023/06/25 03:09:10;;;;;;;26.52;17.00;;;;;;;;;;2519028;23;20006;-76
2023/06/25 03:10:33;;;;;;;28.90;16.85;;;;;;;;;;2525559;23;20062;-76
2023/06/25 03:11:54;;;;;;;24.23;16.50;;;;;;;;;;2531715;23;20014;-76
2023/06/25 03:13:15;;;;;;;25.05;17.10;;;;;;;;;;2529797;23;20006;-77
2023/06/25 03:14:36;;;;;;;26.52;17.60;;;;;;;;;;2530710;23;20312;-75
2023/06/25 03:15:57;;;;;;;29.90;18.90;;;;;;;;;;2529543;23;20101;-76
2023/06/25 03:17:18;;;;;;;28.38;16.98;;;;;;;;;;2531042;23;20037;-76
2023/06/25 03:18:38;;;;;;;30.48;18.08;;;;;;;;;;2529943;23;20025;-76
2023/06/25 03:19:59;;;;;;;28.48;17.42;;;;;;;;;;2531347;23;20010;-76
2023/06/25 03:21:20;;;;;;;26.80;15.82;;;;;;;;;;2518817;23;20762;-76
2023/06/25 03:22:41;;;;;;;28.90;17.83;;;;;;;;;;2525258;23;20026;-76
2023/06/25 03:24:02;;;;;;;28.85;18.25;;;;;;;;;;2531139;23;20013;-76
2023/06/25 03:25:23;;;;;;;30.75;17.88;;;;;;;;;;2531147;23;20339;-76
2023/06/25 03:26:44;;;;;;;27.75;17.40;;;;;;;;;;2531779;23;20010;-76
2023/06/25 03:28:05;;;;;;;28.75;17.75;;;;;;;;;;2530730;23;20010;-76
2023/06/25 03:29:26;;;;;;;23.65;16.48;;;;;;;;;;2530316;23;20006;-76
2023/06/25 03:30:47;;;;;;;29.85;17.85;;;;;;;;;;2530569;23;20033;-76
2023/06/25 03:32:08;;;;;;;26.85;16.80;;;;;;;;;;2530751;23;20014;-76
2023/06/25 03:33:29;;;;;;;26.15;16.52;;;;;;;;;;2530533;23;20017;-76
2023/06/25 03:34:50;;;;;;;27.48;16.98;;;;;;;;;;2531959;23;20009;-75
2023/06/25 03:36:11;;;;;;;26.88;17.25;;;;;;;;;;2532056;23;20339;-76
2023/06/25 03:37:32;;;;;;;26.33;16.02;;;;;;;;;;2530957;23;20021;-76
2023/06/25 03:38:53;;;;;;;25.92;16.05;;;;;;;;;;2530386;23;20025;-76
2023/06/25 03:40:14;;;;;;;26.92;16.73;;;;;;;;;;2530465;23;20045;-75
2023/06/25 03:41:35;;;;;;;25.20;17.58;;;;;;;;;;2531638;23;20021;-76
2023/06/25 03:42:55;;;;;;;26.85;17.92;;;;;;;;;;2530106;23;20025;-76
2023/06/25 03:44:16;;;;;;;30.23;17.50;;;;;;;;;;2532567;23;20010;-76
2023/06/25 03:45:37;;;;;;;22.90;15.75;;;;;;;;;;2531924;23;20137;-76
2023/06/25 03:46:58;;;;;;;25.85;16.48;;;;;;;;;;2519660;23;20139;-75
2023/06/25 03:48:20;;;;;;;34.25;19.60;;;;;;;;;;2528377;23;20018;-76
2023/06/25 03:49:42;;;;;;;25.23;16.03;;;;;;;;;;2532241;23;20072;-75
2023/06/25 03:51:03;;;;;;;25.17;16.42;;;;;;;;;;2531800;23;20901;-75
2023/06/25 03:52:24;;;;;;;28.88;17.00;;;;;;;;;;2520333;23;20010;-73
2023/06/25 03:53:45;;;;;;;31.88;19.10;;;;;;;;;;2526356;23;20018;-75
2023/06/25 03:55:06;;;;;;;29.10;17.20;;;;;;;;;;2517890;23;20498;-76
2023/06/25 03:56:27;;;;;;;22.50;15.85;;;;;;;;;;2528392;23;20010;-76
2023/06/25 03:57:50;;;;;;;25.30;16.75;;;;;;;;;;2532042;23;20014;-76
2023/06/25 03:59:10;;;;;;;26.58;17.27;;;;;;;;;;2532529;23;20018;-76
2023/06/25 04:00:31;;;;;;;24.08;16.58;;;;;;;;;;2530761;23;20021;-76
2023/06/25 04:01:52;;;;;;;25.83;18.05;;;;;;;;;;2531455;23;20021;-76
2023/06/25 04:03:13;;;;;;;28.55;17.58;;;;;;;;;;2529877;23;20018;-76
2023/06/25 04:04:34;;;;;;;26.75;18.10;;;;;;;;;;2531777;23;20360;-77
2023/06/25 04:05:55;;;;;;;27.35;17.83;;;;;;;;;;2531683;23;20348;-77
2023/06/25 04:07:16;;;;;;;26.65;17.05;;;;;;;;;;2533058;23;20014;-76
2023/06/25 04:08:40;;;;;;;29.35;19.15;;;;;;;;;;2530932;23;20009;-76
2023/06/25 04:10:01;;;;;;;23.75;17.35;;;;;;;;;;2532733;23;20006;-76
2023/06/25 04:11:21;;;;;;;28.63;19.10;;;;;;;;;;2532609;23;20010;-76
2023/06/25 04:12:42;;;;;;;31.42;19.20;;;;;;;;;;2518973;23;20011;-76
2023/06/25 04:14:03;;;;;;;26.60;18.50;;;;;;;;;;2527126;23;20050;-75
2023/06/25 04:15:24;;;;;;;30.23;19.35;;;;;;;;;;2532037;23;20451;-76
2023/06/25 04:16:45;;;;;;;25.75;19.23;;;;;;;;;;2532371;23;20317;-76
2023/06/25 04:18:06;;;;;;;30.75;20.95;;;;;;;;;;2519948;23;20022;-76
2023/06/25 04:19:29;;;;;;;28.63;20.08;;;;;;;;;;2515835;23;20026;-76
2023/06/25 04:20:49;;;;;;;32.40;20.83;;;;;;;;;;2527565;23;20018;-76
2023/06/25 04:22:10;;;;;;;27.55;21.20;;;;;;;;;;2531704;23;20010;-76
2023/06/25 04:23:31;;;;;;;28.30;20.08;;;;;;;;;;2529587;23;20025;-76
2023/06/25 04:24:52;;;;;;;31.33;20.60;;;;;;;;;;2532156;23;20014;-76
2023/06/25 04:26:13;;;;;;;32.10;21.25;;;;;;;;;;2531893;23;20010;-76
2023/06/25 04:27:34;;;;;;;28.80;19.40;;;;;;;;;;2532427;23;20014;-76
2023/06/25 04:28:55;;;;;;;32.38;20.88;;;;;;;;;;2531502;23;20010;-76
2023/06/25 04:30:16;;;;;;;31.33;20.15;;;;;;;;;;2531140;23;20006;-76
2023/06/25 04:31:37;;;;;;;29.15;19.27;;;;;;;;;;2530695;23;20090;-76
2023/06/25 04:32:58;;;;;;;28.02;19.48;;;;;;;;;;2531585;23;20018;-76
2023/06/25 04:34:18;;;;;;;27.75;19.33;;;;;;;;;;2519811;23;20352;-76
2023/06/25 04:35:39;;;;;;;27.30;20.15;;;;;;;;;;2516931;23;20014;-76
2023/06/25 04:37:00;;;;;;;30.13;18.33;;;;;;;;;;2526944;23;20113;-76
2023/06/25 04:38:21;;;;;;;31.75;19.05;;;;;;;;;;2530740;23;20010;-76
2023/06/25 04:39:42;;;;;;;31.20;20.85;;;;;;;;;;2532096;23;20014;-76
2023/06/25 04:41:03;;;;;;;29.27;20.80;;;;;;;;;;2532337;23;20455;-76
2023/06/25 04:42:24;;;;;;;25.52;19.63;;;;;;;;;;2530723;23;20025;-76
2023/06/25 04:43:45;;;;;;;30.48;20.88;;;;;;;;;;2532120;23;20074;-76
2023/06/25 04:45:06;;;;;;;29.52;20.75;;;;;;;;;;2531825;23;20010;-76
2023/06/25 04:46:27;;;;;;;31.45;20.63;;;;;;;;;;2531281;23;20014;-76
2023/06/25 04:47:48;;;;;;;27.33;20.25;;;;;;;;;;2519770;23;20106;-76
2023/06/25 04:49:09;;;;;;;29.85;19.73;;;;;;;;;;2527548;23;20343;-76
2023/06/25 04:50:30;;;;;;;31.73;19.73;;;;;;;;;;2532701;23;20010;-76
2023/06/25 04:51:51;;;;;;;31.27;20.48;;;;;;;;;;2530930;23;20738;-76
2023/06/25 04:53:12;;;;;;;32.75;21.25;;;;;;;;;;2519174;23;20021;-76
2023/06/25 04:54:32;;;;;;;28.85;19.65;;;;;;;;;;2526512;23;20013;-76
2023/06/25 04:55:53;;;;;;;34.90;20.63;;;;;;;;;;2532670;23;20006;-76
2023/06/25 04:57:14;;;;;;;29.17;20.55;;;;;;;;;;2530647;23;20320;-75
2023/06/25 04:58:35;;;;;;;32.08;21.50;;;;;;;;;;2521402;23;20014;-76
2023/06/25 04:59:56;;;;;;;28.58;21.02;;;;;;;;;;2527170;23;20183;-76
2023/06/25 05:01:17;;;;;;;27.10;21.00;;;;;;;;;;2531855;23;20046;-76
2023/06/25 05:02:38;;;;;;;33.50;21.42;;;;;;;;;;2530833;23;20036;-76
2023/06/25 05:03:59;;;;;;;30.75;20.60;;;;;;;;;;2531850;23;20105;-76
2023/06/25 05:05:20;;;;;;;28.00;19.45;;;;;;;;;;2532261;23;20439;-76
2023/06/25 05:06:41;;;;;;;35.88;21.95;;;;;;;;;;2521447;23;20368;-76
2023/06/25 05:08:01;;;;;;;32.25;21.63;;;;;;;;;;2515915;23;20014;-76
2023/06/25 05:09:22;;;;;;;27.02;20.33;;;;;;;;;;2527461;23;20006;-76
2023/06/25 05:10:43;;;;;;;33.13;21.45;;;;;;;;;;2529565;23;20458;-76
2023/06/25 05:12:04;;;;;;;36.55;22.85;;;;;;;;;;2529478;23;20339;-76
2023/06/25 05:13:28;;;;;;;27.85;21.08;;;;;;;;;;2529065;23;20037;-76
2023/06/25 05:14:49;;;;;;;31.40;22.35;;;;;;;;;;2521069;23;20010;-76
2023/06/25 05:16:10;;;;;;;27.95;20.70;;;;;;;;;;2528782;23;20006;-76
2023/06/25 05:17:31;;;;;;;27.23;20.13;;;;;;;;;;2532393;23;20339;-76
2023/06/25 05:18:52;;;;;;;29.98;21.05;;;;;;;;;;2530310;23;20018;-76
2023/06/25 05:20:13;;;;;;;30.27;20.60;;;;;;;;;;2532485;23;20014;-76
2023/06/25 05:21:34;;;;;;;30.35;20.30;;;;;;;;;;2519445;23;20015;-76
2023/06/25 05:22:55;;;;;;;31.48;21.33;;;;;;;;;;2527187;23;20296;-76
2023/06/25 05:24:16;;;;;;;26.27;19.90;;;;;;;;;;2530851;23;20010;-76
2023/06/25 05:25:37;;;;;;;28.15;19.85;;;;;;;;;;2533267;23;20339;-76
2023/06/25 05:26:58;;;;;;;39.30;22.33;;;;;;;;;;2530738;23;20014;-78
2023/06/25 05:28:18;;;;;;;30.70;20.77;;;;;;;;;;2529830;23;20025;-78
2023/06/25 05:29:39;;;;;;;28.02;19.63;;;;;;;;;;2520260;23;20021;-77
2023/06/25 05:31:00;;;;;;;27.80;20.50;;;;;;;;;;2515272;23;20033;-77
2023/06/25 05:32:21;;;;;;;27.45;21.40;;;;;;;;;;2528398;23;20010;-77
2023/06/25 05:33:42;;;;;;;29.25;20.52;;;;;;;;;;2529542;23;20014;-77
2023/06/25 05:35:03;;;;;;;33.58;22.08;;;;;;;;;;2532741;23;20273;-77
2023/06/25 05:36:24;;;;;;;26.10;20.00;;;;;;;;;;2532005;23;20013;-77
2023/06/25 05:37:45;;;;;;;30.33;21.10;;;;;;;;;;2531408;23;20343;-77
2023/06/25 05:39:06;;;;;;;29.13;20.23;;;;;;;;;;2530091;23;20010;-77
2023/06/25 05:40:27;;;;;;;32.70;22.48;;;;;;;;;;2530868;23;20013;-77
2023/06/25 05:41:48;;;;;;;34.13;21.77;;;;;;;;;;2531548;23;20021;-77
2023/06/25 05:43:09;;;;;;;33.42;21.95;;;;;;;;;;2531600;23;20085;-77
2023/06/25 05:44:30;;;;;;;28.92;20.58;;;;;;;;;;2530918;23;20013;-77
2023/06/25 05:45:50;;;;;;;35.00;22.15;;;;;;;;;;2531719;23;20025;-77
2023/06/25 05:47:11;;;;;;;33.92;22.05;;;;;;;;;;2520814;23;20010;-77
2023/06/25 05:48:32;;;;;;;30.38;21.45;;;;;;;;;;2517236;23;20015;-77
2023/06/25 05:49:53;;;;;;;29.55;21.40;;;;;;;;;;2526453;23;20343;-77
2023/06/25 05:51:14;;;;;;;32.20;21.90;;;;;;;;;;2531763;23;20017;-77
2023/06/25 05:52:35;;;;;;;31.88;22.13;;;;;;;;;;2530834;23;20006;-77
2023/06/25 05:53:56;;;;;;;32.00;21.92;;;;;;;;;;2530069;23;20401;-77
2023/06/25 05:55:17;;;;;;;32.38;22.88;;;;;;;;;;2530234;23;20021;-77
2023/06/25 05:56:37;;;;;;;35.92;22.80;;;;;;;;;;2532942;23;20010;-77
2023/06/25 05:57:58;;;;;;;32.88;21.75;;;;;;;;;;2531487;23;20440;-77
2023/06/25 05:59:19;;;;;;;31.02;22.48;;;;;;;;;;2530916;23;20040;-77
2023/06/25 06:00:40;;;;;;;28.67;20.63;;;;;;;;;;2530115;23;20024;-76
2023/06/25 06:02:01;;;;;;;30.08;21.15;;;;;;;;;;2520177;23;20010;-77
2023/06/25 06:03:22;;;;;;;35.22;22.80;;;;;;;;;;2526463;23;20006;-77
2023/06/25 06:04:43;;;;;;;32.83;21.50;;;;;;;;;;2530910;23;20010;-77
2023/06/25 06:06:04;;;;;;;29.50;21.33;;;;;;;;;;2530861;23;20025;-77
2023/06/25 06:07:25;;;;;;;36.65;21.17;;;;;;;;;;2520164;23;20006;-77
2023/06/25 06:08:46;;;;;;;31.70;21.80;;;;;;;;;;2527333;23;20448;-77
2023/06/25 06:10:06;;;;;;;33.33;22.30;;;;;;;;;;2529241;23;20459;-77
2023/06/25 06:11:27;;;;;;;27.77;19.98;;;;;;;;;;2532370;23;20436;-77
2023/06/25 06:12:48;;;;;;;29.45;21.52;;;;;;;;;;2531165;23;20344;-77
2023/06/25 06:14:09;;;;;;;28.45;19.85;;;;;;;;;;2531211;23;20017;-77
2023/06/25 06:15:30;;;;;;;28.48;20.55;;;;;;;;;;2519174;23;20029;-77
2023/06/25 06:16:51;;;;;;;29.02;20.02;;;;;;;;;;2527097;23;20017;-77
2023/06/25 06:18:12;;;;;;;32.67;20.83;;;;;;;;;;2530830;23;20041;-77
2023/06/25 06:19:33;;;;;;;28.80;20.27;;;;;;;;;;2531885;23;20020;-77
2023/06/25 06:20:54;;;;;;;33.30;20.58;;;;;;;;;;2530046;23;20006;-77
2023/06/25 06:22:16;;;;;;;31.48;20.80;;;;;;;;;;2531354;23;20010;-77
2023/06/25 06:23:37;;;;;;;35.25;19.40;;;;;;;;;;2519515;23;20014;-77
2023/06/25 06:24:58;;;;;;;28.88;19.80;;;;;;;;;;2527661;23;20033;-77
2023/06/25 06:26:19;;;;;;;26.58;19.45;;;;;;;;;;2531064;23;20075;-77
2023/06/25 06:27:39;;;;;;;27.58;20.30;;;;;;;;;;2518320;23;20010;-78
2023/06/25 06:29:03;;;;;;;31.98;19.63;;;;;;;;;;2527903;23;20094;-77
2023/06/25 06:30:24;;;;;;;27.17;19.77;;;;;;;;;;2531777;23;20013;-76
2023/06/25 06:31:45;;;;;;;28.63;19.83;;;;;;;;;;2532223;23;20033;-75
2023/06/25 06:33:06;;;;;;;30.45;20.70;;;;;;;;;;2519925;23;20006;-76
2023/06/25 06:34:27;;;;;;;30.77;20.23;;;;;;;;;;2524141;23;20021;-75
2023/06/25 06:35:48;;;;;;;29.60;19.77;;;;;;;;;;2531353;23;20569;-77
2023/06/25 06:37:08;;;;;;;31.80;20.25;;;;;;;;;;2518750;23;20037;-77
2023/06/25 06:38:29;;;;;;;31.45;20.45;;;;;;;;;;2528048;23;20423;-77
2023/06/25 06:39:50;;;;;;;28.42;20.10;;;;;;;;;;2530131;23;20077;-78
2023/06/25 06:41:11;;;;;;;28.60;19.38;;;;;;;;;;2519741;23;20021;-77
2023/06/25 06:42:35;;;;;;;31.17;20.73;;;;;;;;;;2515202;23;20015;-77
2023/06/25 06:44:09;;;;;;;32.00;19.40;;;;;;;;;;2514217;23;20026;-77
2023/06/25 06:45:30;;;;;;;28.98;20.85;;;;;;;;;;2517945;23;20029;-77
2023/06/25 06:46:51;;;;;;;26.63;18.52;;;;;;;;;;2528625;23;20017;-78
2023/06/25 06:48:12;;;;;;;24.75;18.08;;;;;;;;;;2532979;23;20017;-77
2023/06/25 06:49:33;;;;;;;24.63;18.05;;;;;;;;;;2531389;23;20006;-77
2023/06/25 06:50:54;;;;;;;28.80;19.00;;;;;;;;;;2530011;23;20317;-75
2023/06/25 06:52:15;;;;;;;26.98;18.50;;;;;;;;;;2532014;23;20041;-78
2023/06/25 06:53:36;;;;;;;25.67;18.33;;;;;;;;;;2530010;23;20892;-78
2023/06/25 06:54:57;;;;;;;28.20;17.92;;;;;;;;;;2529798;23;20010;-77
2023/06/25 06:56:18;;;;;;;26.08;18.70;;;;;;;;;;2531435;23;20009;-78
2023/06/25 06:57:38;;;;;;;30.65;19.38;;;;;;;;;;2518989;23;20030;-77
2023/06/25 06:58:59;;;;;;;34.85;19.02;;;;;;;;;;2513316;23;20420;-77
2023/06/25 07:00:20;;;;;;;26.13;17.10;;;;;;;;;;2527975;23;20017;-77
2023/06/25 07:01:41;;;;;;;29.70;18.77;;;;;;;;;;2531645;23;20010;-78
2023/06/25 07:03:02;;;;;;;33.35;19.23;;;;;;;;;;2532245;23;20010;-77
2023/06/25 07:04:23;;;;;;;27.08;17.75;;;;;;;;;;2518103;23;20018;-78
2023/06/25 07:05:44;;;;;;;25.08;16.98;;;;;;;;;;2526750;23;20029;-77
2023/06/25 07:07:05;;;;;;;29.77;18.58;;;;;;;;;;2529564;23;20017;-78
2023/06/25 07:08:26;;;;;;;27.07;18.73;;;;;;;;;;2532778;23;20025;-78
2023/06/25 07:09:50;;;;;;;31.35;20.55;;;;;;;;;;2529449;23;20010;-75
2023/06/25 07:11:13;;;;;;;29.15;19.35;;;;;;;;;;2519882;23;20019;-77
2023/06/25 07:12:33;;;;;;;;;;;;;;;;;;2526764;23;20010;-77
2023/06/25 07:13:54;;;;;;;24.70;17.48;;;;;;;;;;2518659;23;19944;-75
2023/06/25 07:15:15;;;;;;;26.70;18.38;;;;;;;;;;2525932;23;20064;-75
2023/06/25 07:16:36;;;;;;;25.92;17.48;;;;;;;;;;2532361;23;20010;-75
2023/06/25 07:17:57;;;;;;;25.23;17.35;;;;;;;;;;2531301;23;20396;-77
2023/06/25 07:19:18;;;;;;;27.50;16.98;;;;;;;;;;2533614;23;20014;-77
2023/06/25 07:20:39;;;;;;;27.80;17.13;;;;;;;;;;2532301;23;20444;-77
2023/06/25 07:22:00;;;;;;;23.92;16.30;;;;;;;;;;2520486;23;20018;-77
2023/06/25 07:23:20;;;;;;;31.67;17.20;;;;;;;;;;2526347;23;20021;-77
2023/06/25 07:24:41;;;;;;;26.95;16.90;;;;;;;;;;2531705;23;20104;-75
2023/06/25 07:26:02;;;;;;;24.60;15.38;;;;;;;;;;2519687;23;20011;-77
2023/06/25 07:27:23;;;;;;;24.77;14.95;;;;;;;;;;2518972;23;20011;-77
2023/06/25 07:28:44;;;;;;;23.70;15.18;;;;;;;;;;2514152;23;20041;-78
2023/06/25 07:30:05;;;;;;;26.38;15.30;;;;;;;;;;2530515;23;20010;-78
2023/06/25 07:31:26;;;;;;;24.27;16.00;;;;;;;;;;2532371;23;20014;-74
2023/06/25 07:32:47;;;;;;;21.98;14.60;;;;;;;;;;2531035;23;20010;-75
2023/06/25 07:34:08;;;;;;;21.27;13.90;;;;;;;;;;2531259;23;20010;-77
2023/06/25 07:35:29;;;;;;;24.92;14.23;;;;;;;;;;2532491;23;20340;-76
2023/06/25 07:36:50;;;;;;;22.73;13.50;;;;;;;;;;2531590;23;20022;-75
2023/06/25 07:38:11;;;;;;;23.67;13.93;;;;;;;;;;2531016;23;20006;-74
2023/06/25 07:39:33;;;;;;;20.25;13.82;;;;;;;;;;2532651;23;20404;-77
2023/06/25 07:40:54;;;;;;;21.15;14.23;;;;;;;;;;2532530;23;20014;-75
2023/06/25 07:42:14;;;;;;;21.50;14.55;;;;;;;;;;2521154;23;20015;-75
2023/06/25 07:43:35;;;;;;;22.48;15.80;;;;;;;;;;2527281;23;20013;-74
2023/06/25 07:44:56;;;;;;;23.48;14.85;;;;;;;;;;2520088;23;20014;-75
2023/06/25 07:46:17;;;;;;;25.20;14.85;;;;;;;;;;2515887;23;20014;-74
2023/06/25 07:47:38;;;;;;;24.88;15.65;;;;;;;;;;2516444;23;20010;-76
2023/06/25 07:48:59;;;;;;;25.17;16.13;;;;;;;;;;2527995;23;20045;-76
2023/06/25 07:50:20;;;;;;;26.20;16.48;;;;;;;;;;2531859;23;20463;-76
2023/06/25 07:51:45;;;;;;;25.00;15.95;;;;;;;;;;2529278;23;20010;-76
2023/06/25 07:53:05;;;;;;;26.83;17.05;;;;;;;;;;2531968;23;20010;-75
2023/06/25 07:54:26;;;;;;;24.35;16.00;;;;;;;;;;2519409;23;20011;-76
2023/06/25 07:55:49;;;;;;;30.17;17.00;;;;;;;;;;2527303;23;20321;-75
2023/06/25 07:57:10;;;;;;;27.90;16.88;;;;;;;;;;2527946;23;20018;-76
2023/06/25 07:58:31;;;;;;;29.63;17.10;;;;;;;;;;2532132;23;20014;-76
2023/06/25 07:59:53;;;;;;;23.17;15.93;;;;;;;;;;2529316;23;20013;-76
2023/06/25 08:01:14;;;;;;;29.30;16.35;;;;;;;;;;2517917;23;20018;-76
2023/06/25 08:02:35;;;;;;;31.83;16.63;;;;;;;;;;2511480;23;20122;-76
2023/06/25 08:03:56;;;;;;;22.45;14.02;;;;;;;;;;2524574;23;20793;-76
2023/06/25 08:05:17;;;;;;;32.57;16.20;;;;;;;;;;2524147;23;20006;-76
2023/06/25 08:06:38;;;;;;;29.50;14.20;;;;;;;;;;2516611;23;20470;-76
2023/06/25 08:07:59;;;;;;;19.27;12.52;;;;;;;;;;2517722;23;20017;-76
2023/06/25 08:09:19;;;;;;;25.50;14.27;;;;;;;;;;2527218;23;20444;-75
2023/06/25 08:10:40;;;;;;;18.35;11.57;;;;;;;;;;2530864;23;20073;-76
2023/06/25 08:12:01;;;;;;;17.00;11.25;;;;;;;;;;2530098;23;20013;-76
2023/06/25 08:13:22;;;;;;;24.77;12.90;;;;;;;;;;2528900;23;20026;-75
2023/06/25 08:14:43;;;;;;;24.73;13.93;;;;;;;;;;2528802;23;20018;-76
2023/06/25 08:16:04;;;;;;;19.73;12.32;;;;;;;;;;2520209;23;20011;-77
2023/06/25 08:17:25;;;;;;;20.85;11.60;;;;;;;;;;2526013;23;20300;-78
2023/06/25 08:18:46;;;;;;;16.63;11.25;;;;;;;;;;2529726;23;20017;-77
2023/06/25 08:20:07;;;;;;;29.95;14.27;;;;;;;;;;2528063;23;20013;-75
2023/06/25 08:21:28;;;;;;;16.20;11.00;;;;;;;;;;2531571;23;20014;-75
2023/06/25 08:22:49;;;;;;;16.10;9.40;;;;;;;;;;2528653;23;20041;-75
2023/06/25 08:24:10;;;;;;;19.67;11.98;;;;;;;;;;2529317;23;20387;-76
2023/06/25 08:25:31;;;;;;;34.20;16.58;;;;;;;;;;2526161;23;20013;-74
2023/06/25 08:26:52;;;;;;;19.80;12.18;;;;;;;;;;2531748;23;20396;-75
2023/06/25 08:28:13;;;;;;;18.70;11.02;;;;;;;;;;2530933;23;20013;-75
2023/06/25 08:29:34;;;;;;;21.60;12.20;;;;;;;;;;2516780;23;20083;-76
2023/06/25 08:30:55;;;;;;;14.13;10.27;;;;;;;;;;2525261;23;20014;-76
2023/06/25 08:32:16;;;;;;;18.80;10.55;;;;;;;;;;2520150;23;20440;-75
2023/06/25 08:33:37;;;;;;;19.05;10.93;;;;;;;;;;2526934;23;20037;-76
2023/06/25 08:34:58;;;;;;;18.80;11.60;;;;;;;;;;2530230;23;20014;-77
2023/06/25 08:36:19;;;;;;;19.20;10.45;;;;;;;;;;2529171;23;20128;-76
2023/06/25 08:37:39;;;;;;;20.27;12.23;;;;;;;;;;2517452;23;20691;-74
2023/06/25 08:39:00;;;;;;;18.90;11.32;;;;;;;;;;2526013;23;20042;-75
2023/06/25 08:40:22;;;;;;;21.85;11.82;;;;;;;;;;2529098;23;20010;-76
2023/06/25 08:41:42;;;;;;;24.35;13.18;;;;;;;;;;2530688;23;20037;-74
2023/06/25 08:43:03;;;;;;;16.27;10.98;;;;;;;;;;2528560;23;20411;-75
2023/06/25 08:44:24;;;;;;;17.77;11.60;;;;;;;;;;2528411;23;20022;-75
2023/06/25 08:45:48;;;;;;;18.83;11.32;;;;;;;;;;2529412;23;20029;-77
2023/06/25 08:47:10;;;;;;;23.13;13.07;;;;;;;;;;2519099;23;20408;-76
2023/06/25 08:48:33;;;;;;;19.88;11.32;;;;;;;;;;2526764;23;20348;-76
2023/06/25 08:49:54;;;;;;;15.38;10.20;;;;;;;;;;2530280;23;20013;-74
2023/06/25 08:51:17;;;;;;;14.55;10.07;;;;;;;;;;2531448;23;20010;-73
2023/06/25 08:52:38;;;;;;;14.48;10.05;;;;;;;;;;2532984;23;20316;-72
2023/06/25 08:54:00;;;;;;;15.23;9.70;;;;;;;;;;2530206;23;20017;-72